KGCN

Grand Canyon National Park Airport

Grand Canyon, Arizona, USA
METAR KGCN 181454Z 04005KT 10SM CLR M06/M08 A3030 RMK AO2 SLP283 T10611083 53003
Observed Flight Rules
Jan-18 @ 14:54 UTC (50 minutes ago) Visual Flight Rules
Wind Visibility Clouds
40° at 5 knots 10 miles
  • Clear skies
Temperatures Readings
Current -6°C / 21°F
Dewpoint -8°C / 18°F
Humidity 86%
Altimeter 30.3" Hg
Pressure 1028.3 hPa
Elevation 2016
METAR KGCN 181454Z 04005KT 10SM CLR M06/M08 A3030 RMK AO2 SLP283 T10611083 53003
Observed Flight Rules
Jan-18 @ 14:54 UTC
(50 minutes ago)
VFR
Wind Visibility
40° at 5 knots 10 miles
Clouds
  • Clear skies
Temperature Dewpoint
-6°C / 21°F -8°C / 18°F
Humidity Altimeter Pressure
86% 30.3" Hg 1028.3 hPa